Terminal Aerodrome Forecast
Issued by NWS

Home | Current Version | Previous Version | Text Only | Print | Product List | Glossary Off
Versions: 1 2 3 4 5 6 7 8 9 10 11 12 13

000
FTUS42 KMHX 241720
TAFISO
TAF
KISO 241720Z 2418/2518 21008G15KT P6SM FEW050
     FM250100 19007KT P6SM SKC
     FM251000 VRB03KT 5SM BR SKC
     FM251300 21007KT P6SM FEW025
      AMD LTD TO CLD VIS AND WIND=

USA.gov is the U.S. government's official web portal to all federal, state and local government web resources and services.